Time;durP1;ratioP1;P1;durP2;ratioP2;P2;SDS_P1;SDS_P2;PMS_P1;PMS_P2;Temp;Humidity;BMP_temperature;BMP_pressure;BME280_temperature;BME280_humidity;BME280_pressure;Samples;Min_cycle;Max_cycle;Signal;HPM_P1;HPM_P2
2022/08/13 00:00:16;;;;;;;23.80;13.57;;;;;;;24.84;60.50;100266.88;5078208;28;20042;-83
2022/08/13 00:02:43;;;;;;;22.48;15.88;;;;;;;24.78;60.72;100262.22;5128348;27;20418;-82
2022/08/13 00:05:09;;;;;;;23.90;14.48;;;;;;;24.75;60.60;100265.44;5094592;28;20024;-81
2022/08/13 00:07:38;;;;;;;33.40;23.15;;;;;;;24.69;60.83;100262.75;5095750;28;20044;-81
2022/08/13 00:10:09;;;;;;;32.45;14.32;;;;;;;24.68;60.86;100261.03;5095653;28;20109;-81
2022/08/13 00:15:37;;;;;;;19.48;15.07;;;;;;;24.60;61.45;100255.84;5094377;28;20125;-83
2022/08/13 00:18:09;;;;;;;22.38;14.68;;;;;;;24.57;61.63;100259.03;5077032;28;20395;-82
2022/08/13 00:20:49;;;;;;;23.35;15.05;;;;;;;24.52;61.63;100251.47;5092855;28;20042;-82
2022/08/13 00:23:17;;;;;;;28.63;15.45;;;;;;;24.48;61.95;100250.25;5097778;28;20023;-82
2022/08/13 00:25:47;;;;;;;22.65;14.52;;;;;;;24.45;62.29;100255.34;5111040;28;20025;-82
2022/08/13 00:28:19;;;;;;;21.65;15.00;;;;;;;24.43;62.31;100247.31;5077115;28;20537;-82
2022/08/13 00:30:47;;;;;;;27.52;15.50;;;;;;;24.45;62.44;100245.19;5094165;28;20089;-82
2022/08/13 00:33:15;;;;;;;22.88;14.00;;;;;;;24.48;62.26;100249.38;5095173;28;20401;-81
2022/08/13 00:35:43;;;;;;;17.92;13.82;;;;;;;24.43;62.31;100252.81;5102163;28;20024;-82
2022/08/13 00:38:14;;;;;;;21.13;15.23;;;;;;;24.39;62.44;100235.09;5093081;28;20031;-80
2022/08/13 00:40:50;;;;;;;24.58;15.43;;;;;;;24.34;63.03;100237.69;5108634;28;20027;-82
2022/08/13 00:43:15;;;;;;;24.50;14.80;;;;;;;24.32;63.30;100245.28;5109202;28;20093;-82
2022/08/13 00:45:41;;;;;;;24.08;15.18;;;;;;;24.31;63.35;100251.88;5093502;28;20028;-82
2022/08/13 00:50:56;;;;;;;22.48;15.77;;;;;;;24.23;63.61;100250.22;5095516;28;20077;-83
2022/08/13 00:53:23;;;;;;;24.95;15.15;;;;;;;24.23;63.85;100246.63;5093155;28;20020;-83
2022/08/13 00:55:53;;;;;;;31.70;15.88;;;;;;;24.18;64.20;100243.72;5095007;28;20023;-82
2022/08/13 00:58:20;;;;;;;23.80;14.77;;;;;;;24.15;64.11;100244.16;5095211;28;20065;-82
2022/08/13 01:00:50;;;;;;;23.88;15.00;;;;;;;24.13;64.20;100241.59;5127244;27;20486;-82
2022/08/13 01:03:18;;;;;;;25.80;15.77;;;;;;;24.13;64.60;100249.00;5093331;28;20024;-83
2022/08/13 01:05:47;;;;;;;17.90;14.18;;;;;;;24.11;64.55;100242.91;5094314;28;20115;-82
2022/08/13 01:08:16;;;;;;;19.67;14.25;;;;;;;24.05;64.91;100238.25;5094228;28;20028;-81
2022/08/13 01:10:45;;;;;;;20.58;15.25;;;;;;;24.07;64.78;100241.63;5094315;28;20107;-81
2022/08/13 01:13:11;;;;;;;22.98;14.82;;;;;;;24.01;64.94;100232.38;5093690;28;20047;-82
2022/08/13 01:15:40;;;;;;;27.80;15.77;;;;;;;24.06;65.03;100239.97;5093986;28;20048;-81
2022/08/13 01:18:07;;;;;;;18.75;14.48;;;;;;;24.03;65.08;100243.16;5093198;28;20019;-82
2022/08/13 01:20:42;;;;;;;21.05;16.00;;;;;;;23.98;65.16;100240.19;5094047;28;20024;-82
2022/08/13 01:23:08;;;;;;;21.58;15.68;;;;;;;23.96;65.33;100234.09;5093906;28;20051;-82
2022/08/13 01:25:34;;;;;;;21.25;15.30;;;;;;;24.02;65.02;100235.97;5094300;28;20455;-82
2022/08/13 01:28:00;;;;;;;21.00;14.38;;;;;;;24.07;64.86;100241.63;5093926;28;20031;-82
2022/08/13 01:30:25;;;;;;;25.42;15.18;;;;;;;24.06;65.00;100234.47;5092807;28;20042;-82
2022/08/13 01:32:52;;;;;;;27.55;15.52;;;;;;;24.00;64.70;100213.38;5092532;28;20031;-82
2022/08/13 01:35:20;;;;;;;23.90;15.57;;;;;;;24.13;64.62;100236.13;5092460;28;20020;-82
2022/08/13 01:37:51;;;;;;;24.77;14.88;;;;;;;24.20;64.45;100230.56;5075924;28;20031;-81
2022/08/13 01:40:17;;;;;;;25.35;16.33;;;;;;;24.20;64.19;100238.81;5093911;28;20026;-82
2022/08/13 01:42:45;;;;;;;24.50;15.90;;;;;;;24.09;64.07;100217.53;5109268;27;20032;-81
2022/08/13 01:45:14;;;;;;;20.13;15.07;;;;;;;24.19;64.18;100228.88;5092421;28;20124;-82
2022/08/13 01:50:29;;;;;;;28.50;15.88;;;;;;;24.16;64.21;100226.56;5093458;28;20500;-82
2022/08/13 01:53:11;;;;;;;26.40;16.13;;;;;;;24.13;64.47;100230.63;5092404;28;20027;-82
2022/08/13 01:55:41;;;;;;;23.67;15.05;;;;;;;24.11;64.60;100230.00;5092056;28;20485;-82
2022/08/13 01:58:10;;;;;;;24.05;14.73;;;;;;;24.16;64.31;100234.81;5092124;28;20497;-82
2022/08/13 02:00:40;;;;;;;24.77;14.93;;;;;;;24.11;64.47;100232.75;5093882;28;20495;-82
2022/08/13 02:03:11;;;;;;;23.92;15.30;;;;;;;24.13;64.66;100232.53;5075627;28;20036;-82
2022/08/13 02:05:39;;;;;;;24.77;14.50;;;;;;;24.18;64.19;100232.72;5093355;28;20027;-82
2022/08/13 02:08:11;;;;;;;21.40;15.73;;;;;;;24.15;64.61;100233.16;5075164;28;20028;-82
2022/08/13 02:10:38;;;;;;;;;;;;;;;24.18;64.52;100228.06;5096036;28;20028;-82
2022/08/13 02:13:06;;;;;;;32.55;15.13;;;;;;;24.11;64.58;100221.78;5108946;28;19912;-82
2022/08/13 02:15:31;;;;;;;27.13;15.98;;;;;;;24.13;64.66;100222.38;5106797;28;20048;-81
2022/08/13 02:17:58;;;;;;;22.17;15.80;;;;;;;24.10;65.11;100232.94;5103655;28;20024;-82
2022/08/13 02:20:25;;;;;;;23.23;15.40;;;;;;;24.10;64.71;100231.03;5097281;28;20389;-82
2022/08/13 02:22:52;;;;;;;29.50;15.13;;;;;;;24.11;64.75;100215.44;5093349;28;20035;-82
2022/08/13 02:25:20;;;;;;;23.38;15.77;;;;;;;24.04;64.99;100226.44;5091744;28;20024;-81
2022/08/13 02:27:48;;;;;;;24.38;15.80;;;;;;;24.06;65.26;100220.72;5091969;28;20077;-82
2022/08/13 02:30:16;;;;;;;21.52;16.25;;;;;;;24.07;64.86;100225.97;5093275;28;20512;-82
2022/08/13 02:32:44;;;;;;;25.50;16.17;;;;;;;24.06;64.77;100223.47;5075237;28;20032;-81
2022/08/13 02:35:09;;;;;;;20.42;14.57;;;;;;;24.10;64.62;100219.19;5091738;28;20023;-81
2022/08/13 02:37:37;;;;;;;25.65;14.18;;;;;;;24.08;64.50;100222.19;5091410;28;20031;-82
2022/08/13 02:41:38;;;;;;;18.58;13.88;;;;;;;24.04;64.99;100215.44;5092786;28;20027;-81
2022/08/13 02:42:53;;;;;;;31.42;16.13;;;;;;;24.06;65.00;100229.81;5092745;28;20028;-82
2022/08/13 02:45:21;;;;;;;25.55;15.25;;;;;;;24.12;64.74;100223.47;5095674;28;20096;-81
2022/08/13 02:47:48;;;;;;;26.67;15.98;;;;;;;23.96;65.13;100228.59;5095657;28;20027;-81
2022/08/13 02:50:14;;;;;;;22.67;16.17;;;;;;;23.85;65.35;100230.16;5097123;28;20106;-82
2022/08/13 02:52:41;;;;;;;23.45;15.65;;;;;;;23.92;65.45;100232.84;5095118;28;20564;-82
2022/08/13 02:55:08;;;;;;;20.27;15.05;;;;;;;23.97;65.13;100224.81;5078500;28;20020;-82
2022/08/13 02:57:34;;;;;;;25.58;16.17;;;;;;;24.02;65.13;100234.06;5095140;28;20359;-81
2022/08/13 02:59:59;;;;;;;18.98;14.38;;;;;;;23.98;65.35;100226.47;5095314;28;20053;-82
2022/08/13 03:02:28;;;;;;;23.15;16.05;;;;;;;23.95;65.57;100235.16;5096814;28;20054;-82
2022/08/13 03:04:53;;;;;;;22.67;15.10;;;;;;;23.98;65.74;100240.19;5095151;28;20020;-82
2022/08/13 03:07:21;;;;;;;24.45;15.60;;;;;;;24.05;65.63;100239.09;5094997;28;20024;-82
2022/08/13 03:09:47;;;;;;;22.95;15.30;;;;;;;23.97;65.80;100244.88;5095337;28;20032;-81
2022/08/13 03:12:16;;;;;;;22.00;14.93;;;;;;;23.90;66.00;100244.06;5094786;28;20030;-81
2022/08/13 03:14:43;;;;;;;22.00;16.35;;;;;;;23.96;65.97;100243.19;5078246;28;20024;-82
2022/08/13 03:17:08;;;;;;;29.30;15.93;;;;;;;24.00;65.62;100246.34;5095412;28;20032;-82
2022/08/13 03:19:35;;;;;;;20.20;15.82;;;;;;;23.97;65.82;100241.28;5094424;28;20118;-82
2022/08/13 03:22:01;;;;;;;20.88;15.90;;;;;;;23.85;66.41;100239.22;5096040;28;20031;-81
2022/08/13 03:24:28;;;;;;;21.17;15.43;;;;;;;23.91;66.58;100243.00;5094568;28;20028;-82
2022/08/13 03:26:55;;;;;;;20.42;16.35;;;;;;;23.97;66.59;100246.78;5094724;28;20063;-81
2022/08/13 03:29:24;;;;;;;27.05;15.88;;;;;;;24.02;66.22;100249.69;5096039;28;20520;-81
2022/08/13 03:31:50;;;;;;;22.80;16.45;;;;;;;24.03;66.51;100256.88;5095983;28;20051;-82
2022/08/13 03:34:20;;;;;;;23.00;16.40;;;;;;;24.09;66.27;100253.25;5095802;28;20473;-82
2022/08/13 03:36:45;;;;;;;20.92;14.77;;;;;;;24.09;65.95;100250.50;5096360;28;20463;-82
2022/08/13 03:39:11;;;;;;;19.88;16.58;;;;;;;24.04;66.47;100253.06;5094479;28;20040;-81
2022/08/13 03:41:37;;;;;;;22.73;16.70;;;;;;;23.88;66.92;100248.94;5095281;28;20024;-82
2022/08/13 03:44:05;;;;;;;22.00;16.83;;;;;;;23.95;66.99;100248.88;5105994;28;20032;-81
2022/08/13 03:46:33;;;;;;;26.63;16.70;;;;;;;23.84;66.87;100236.72;5108212;28;20031;-81
2022/08/13 03:48:59;;;;;;;21.33;16.33;;;;;;;23.95;66.81;100246.13;5111126;28;20027;-83
2022/08/13 03:51:25;;;;;;;29.67;16.75;;;;;;;24.01;66.62;100245.25;5104449;28;20028;-82
2022/08/13 03:53:53;;;;;;;35.10;17.35;;;;;;;24.02;66.86;100244.19;5095818;28;20059;-81
2022/08/13 03:56:20;;;;;;;24.13;16.05;;;;;;;23.97;66.95;100247.63;5077766;28;20020;-82
2022/08/13 03:58:46;;;;;;;22.42;16.30;;;;;;;24.00;66.76;100240.84;5077105;28;20051;-81
2022/08/13 04:01:14;;;;;;;21.52;16.13;;;;;;;23.96;67.09;100240.44;5095461;28;20031;-82
2022/08/13 04:03:41;;;;;;;31.55;16.80;;;;;;;23.99;67.08;100240.00;5095623;28;20043;-82
2022/08/13 04:06:16;;;;;;;21.20;15.75;;;;;;;24.02;67.02;100235.97;5077843;28;20101;-82
2022/08/13 04:08:46;;;;;;;21.30;16.77;;;;;;;23.98;67.05;100231.97;5077929;28;20560;-81
2022/08/13 04:11:15;;;;;;;25.17;17.52;;;;;;;24.02;66.93;100238.72;5095975;28;20044;-82
2022/08/13 04:13:41;;;;;;;24.90;17.08;;;;;;;23.88;67.38;100234.38;5095842;28;20106;-81
2022/08/13 04:16:21;;;;;;;22.83;17.17;;;;;;;23.97;67.34;100241.28;5095583;28;20440;-81
2022/08/13 04:18:49;;;;;;;25.98;18.88;;;;;;;23.99;67.34;100240.00;5095422;28;20032;-81
2022/08/13 04:21:16;;;;;;;24.58;16.20;;;;;;;23.98;67.59;100241.06;5095506;28;20054;-81
2022/08/13 04:23:43;;;;;;;23.77;16.88;;;;;;;24.05;67.38;100236.38;5093988;28;20059;-81
2022/08/13 04:26:17;;;;;;;30.30;18.58;;;;;;;23.85;67.97;100230.97;5076839;28;20028;-81
2022/08/13 04:28:43;;;;;;;30.05;17.63;;;;;;;24.07;67.28;100230.63;5094933;28;20112;-81
2022/08/13 04:31:14;;;;;;;26.73;18.38;;;;;;;24.10;67.48;100230.19;5076474;28;20036;-81
2022/08/13 04:33:40;;;;;;;20.23;17.48;;;;;;;24.13;67.42;100232.53;5093660;28;20028;-81
2022/08/13 04:36:07;;;;;;;25.55;18.10;;;;;;;24.17;67.26;100236.53;5094246;28;20081;-82
2022/08/13 04:38:33;;;;;;;23.75;16.75;;;;;;;24.23;67.15;100235.63;5094307;28;20115;-81
2022/08/13 04:40:59;;;;;;;25.55;17.02;;;;;;;24.25;66.96;100244.47;5093322;28;20107;-81
2022/08/13 04:43:25;;;;;;;20.65;15.57;;;;;;;24.27;66.89;100245.13;5094554;28;20081;-81
2022/08/13 04:45:50;;;;;;;23.17;17.58;;;;;;;24.21;67.49;100237.78;5093885;28;20521;-82
2022/08/13 04:48:16;;;;;;;25.02;17.52;;;;;;;24.25;67.11;100238.97;5094258;28;20028;-81
2022/08/13 04:50:45;;;;;;;20.75;17.15;;;;;;;24.33;67.26;100247.81;5094141;28;20149;-82
2022/08/13 04:53:40;;;;;;;28.75;18.25;;;;;;;24.42;66.92;100242.88;5076159;28;20028;-81
2022/08/13 04:56:07;;;;;;;23.67;16.95;;;;;;;24.42;66.72;100245.63;5084026;28;20482;-81
2022/08/13 04:58:35;;;;;;;29.35;17.48;;;;;;;24.49;66.51;100257.44;5092791;28;20047;-82
2022/08/13 05:01:08;;;;;;;23.08;15.20;;;;;;;24.52;66.65;100245.97;5092695;28;20417;-82
2022/08/13 05:03:38;;;;;;;24.70;17.42;;;;;;;24.56;66.13;100246.34;5093974;28;20114;-81
2022/08/13 05:06:06;;;;;;;22.40;16.95;;;;;;;24.58;66.20;100245.09;5092874;28;20390;-81
2022/08/13 05:08:33;;;;;;;31.23;18.30;;;;;;;24.66;66.17;100246.69;5093674;28;20113;-81
2022/08/13 05:11:00;;;;;;;22.30;16.85;;;;;;;24.67;66.22;100249.22;5094362;28;20046;-81
2022/08/13 05:13:30;;;;;;;23.20;16.80;;;;;;;24.69;65.93;100247.09;5093736;28;20024;-81
2022/08/13 05:15:57;;;;;;;23.00;18.23;;;;;;;24.74;66.06;100247.25;5096203;28;20043;-82
2022/08/13 05:18:25;;;;;;;24.58;17.48;;;;;;;24.76;65.83;100247.88;5104184;28;20124;-81
2022/08/13 05:20:54;;;;;;;21.95;16.38;;;;;;;24.77;65.95;100235.78;5106061;28;20116;-80
2022/08/13 05:23:23;;;;;;;18.85;16.00;;;;;;;24.78;66.28;100240.22;5105009;28;20024;-81
2022/08/13 05:25:49;;;;;;;23.33;17.05;;;;;;;24.84;66.18;100233.84;5095975;28;20112;-82
2022/08/13 05:28:17;;;;;;;21.30;16.83;;;;;;;24.80;65.71;100216.06;5093232;28;20114;-83
2022/08/13 05:30:44;;;;;;;28.48;18.10;;;;;;;24.90;65.89;100232.94;5094116;28;20055;-81
2022/08/13 05:33:13;;;;;;;21.17;15.68;;;;;;;24.96;65.48;100213.81;5093275;28;20143;-82
2022/08/13 05:35:42;;;;;;;25.65;17.40;;;;;;;25.10;65.34;100220.88;5091880;28;20477;-83
2022/08/13 05:38:08;;;;;;;35.45;16.83;;;;;;;25.16;65.31;100214.47;5093685;28;20032;-82
2022/08/13 05:40:35;;;;;;;26.85;17.38;;;;;;;25.21;65.01;100217.34;5092183;28;20051;-81
2022/08/13 05:43:11;;;;;;;25.88;17.25;;;;;;;25.33;65.18;100223.78;5092263;28;20039;-82
2022/08/13 05:45:38;;;;;;;32.22;16.52;;;;;;;25.35;65.08;100213.38;5092043;28;20026;-81
2022/08/13 05:48:04;;;;;;;33.60;17.38;;;;;;;25.44;64.82;100215.56;5093385;28;20036;-82
2022/08/13 05:50:33;;;;;;;31.35;15.07;;;;;;;25.51;64.60;100207.25;5108493;28;20100;-82
2022/08/13 05:53:10;;;;;;;27.30;17.48;;;;;;;25.52;64.45;100214.47;5091851;28;20024;-82
2022/08/13 05:55:40;;;;;;;27.33;16.23;;;;;;;25.56;64.52;100212.09;5091810;28;20432;-82
2022/08/13 05:58:10;;;;;;;48.65;18.55;;;;;;;25.68;64.14;100213.81;5092974;28;20035;-82
2022/08/13 06:03:31;;;;;;;22.67;16.50;;;;;;;25.75;63.81;100203.53;5093660;28;20035;-82
2022/08/13 06:06:11;;;;;;;31.83;15.98;;;;;;;25.74;63.62;100185.34;5093042;28;20028;-82
2022/08/13 06:08:40;;;;;;;26.20;15.57;;;;;;;25.96;63.52;100199.44;5092618;28;20485;-81
2022/08/13 06:11:16;;;;;;;28.77;17.73;;;;;;;26.13;63.22;100207.84;5092835;28;20078;-82
2022/08/13 06:13:43;;;;;;;29.23;19.42;;;;;;;26.21;62.89;100200.09;5091480;28;20753;-82
2022/08/13 06:16:11;;;;;;;27.17;15.65;;;;;;;26.16;62.39;100193.63;5074496;28;20056;-83
2022/08/13 06:18:40;;;;;;;28.55;15.63;;;;;;;26.33;61.96;100200.97;5090037;28;20031;-82
2022/08/13 06:21:10;;;;;;;23.08;16.25;;;;;;;26.33;61.91;100198.19;5092208;28;20035;-82
2022/08/13 06:23:37;;;;;;;27.08;16.95;;;;;;;26.45;61.57;100201.81;5092526;28;20028;-82
2022/08/13 06:26:08;;;;;;;29.85;15.90;;;;;;;26.50;61.05;100196.44;5091900;28;20527;-82
2022/08/13 06:28:35;;;;;;;32.15;16.73;;;;;;;26.50;61.05;100193.69;5057890;28;20048;-83
2022/08/13 06:31:04;;;;;;;19.73;14.27;;;;;;;26.68;60.82;100192.72;5092226;28;20234;-82
2022/08/13 06:33:33;;;;;;;28.88;15.38;;;;;;;26.74;60.17;100190.91;5092140;28;20114;-82
2022/08/13 06:36:07;;;;;;;20.42;14.60;;;;;;;26.81;59.82;100189.75;5092296;28;20032;-81
2022/08/13 06:38:42;;;;;;;22.80;14.13;;;;;;;26.88;59.98;100186.88;5092315;28;20112;-82
2022/08/13 06:41:10;;;;;;;44.72;20.13;;;;;;;26.79;60.01;100183.59;5074065;28;20104;-81
2022/08/13 06:43:41;;;;;;;27.05;15.15;;;;;;;26.85;59.65;100187.31;5092412;28;20032;-83
2022/08/13 06:46:08;;;;;;;23.70;14.45;;;;;;;26.99;59.32;100189.59;5088342;28;20507;-84
2022/08/13 06:48:34;;;;;;;23.73;16.15;;;;;;;26.99;58.76;100167.53;5092378;28;20020;-83
2022/08/13 06:51:06;;;;;;;20.30;14.65;;;;;;;27.14;58.12;100185.50;5083622;28;20032;-81
2022/08/13 06:53:32;;;;;;;23.13;14.15;;;;;;;27.22;58.21;100199.75;5102648;28;20458;-81
2022/08/13 06:55:58;;;;;;;39.75;17.83;;;;;;;27.30;57.95;100196.63;5103241;28;20024;-82
2022/08/13 06:58:28;;;;;;;29.17;14.27;;;;;;;27.38;57.03;100176.91;5097556;28;20035;-82
2022/08/13 07:00:56;;;;;;;23.30;13.32;;;;;;;27.52;56.48;100183.84;5090499;28;20036;-84
2022/08/13 07:03:27;;;;;;;24.25;14.23;;;;;;;27.63;56.77;100193.19;5090792;28;20108;-82
2022/08/13 07:05:56;;;;;;;28.00;14.35;;;;;;;27.69;56.90;100197.72;5074133;28;20043;-81
2022/08/13 07:08:28;;;;;;;22.77;14.80;;;;;;;27.75;56.58;100196.72;5091778;28;20039;-81
2022/08/13 07:13:43;;;;;;;19.92;12.93;;;;;;;27.93;55.88;100188.22;5092098;28;20116;-82
2022/08/13 07:16:10;;;;;;;24.30;13.32;;;;;;;28.03;56.05;100191.19;5091638;28;20111;-81
2022/08/13 07:18:37;;;;;;;24.38;14.05;;;;;;;28.11;55.73;100178.88;5091969;28;20089;-81
2022/08/13 07:21:08;;;;;;;27.15;13.85;;;;;;;28.24;54.33;100175.81;5090318;28;20021;-82
2022/08/13 07:23:35;;;;;;;22.15;14.23;;;;;;;28.26;53.81;100178.31;5091772;28;20026;-81
2022/08/13 07:26:02;;;;;;;19.80;13.35;;;;;;;28.34;53.26;100169.59;5090172;28;20470;-82
2022/08/13 07:28:30;;;;;;;32.33;15.07;;;;;;;28.43;53.77;100177.22;5090217;28;20054;-82
2022/08/13 07:30:56;;;;;;;31.27;14.90;;;;;;;28.46;53.75;100164.81;5092475;28;20051;-80
2022/08/13 07:33:22;;;;;;;22.35;15.38;;;;;;;28.58;53.82;100176.63;5094520;28;20074;-83
2022/08/13 07:35:48;;;;;;;21.52;13.52;;;;;;;28.72;52.89;100183.50;5095492;28;20028;-82
2022/08/13 07:38:15;;;;;;;33.00;14.48;;;;;;;28.77;52.58;100174.44;5094512;28;20055;-81
2022/08/13 07:40:43;;;;;;;31.83;14.38;;;;;;;28.80;52.71;100177.56;5077528;28;20469;-82
2022/08/13 07:43:13;;;;;;;32.00;15.88;;;;;;;28.81;52.66;100173.66;5095040;28;20097;-82
2022/08/13 07:45:41;;;;;;;26.48;14.95;;;;;;;28.94;52.48;100180.78;5094659;28;20027;-81
2022/08/13 07:48:10;;;;;;;24.63;13.85;;;;;;;29.00;52.00;100180.59;5093323;28;20083;-82
2022/08/13 07:50:36;;;;;;;29.17;13.45;;;;;;;29.10;52.11;100175.19;5094889;28;20024;-81
2022/08/13 07:53:02;;;;;;;33.42;14.57;;;;;;;29.24;51.73;100175.66;5094712;28;20027;-82
2022/08/13 07:55:28;;;;;;;24.42;13.90;;;;;;;29.35;51.27;100171.94;5094826;28;20024;-82
2022/08/13 07:57:56;;;;;;;27.83;13.70;;;;;;;29.56;50.55;100178.56;5094301;28;20024;-81
2022/08/13 08:00:24;;;;;;;38.60;19.17;;;;;;;29.68;50.87;100170.94;5093525;28;20478;-82
2022/08/13 08:03:01;;;;;;;27.00;17.23;;;;;;;29.78;50.66;100171.06;5094602;28;20026;-83
2022/08/13 08:05:35;;;;;;;29.75;16.13;;;;;;;29.78;50.14;100165.50;5093241;28;20027;-81
2022/08/13 08:08:00;;;;;;;21.38;12.68;;;;;;;29.79;49.73;100167.16;5093325;28;20028;-82
2022/08/13 08:10:27;;;;;;;21.17;13.00;;;;;;;29.75;49.61;100154.09;5094588;28;20043;-81
2022/08/13 08:12:59;;;;;;;25.40;13.75;;;;;;;29.80;49.66;100154.13;5094439;28;20039;-82
2022/08/13 08:15:26;;;;;;;20.23;12.98;;;;;;;29.83;49.45;100139.78;5093138;28;20040;-81
2022/08/13 08:17:53;;;;;;;29.83;14.95;;;;;;;29.95;49.54;100138.53;5094209;28;20024;-81
2022/08/13 08:20:21;;;;;;;38.38;15.82;;;;;;;29.93;49.43;100134.34;5094087;28;20098;-81
2022/08/13 08:22:51;;;;;;;28.80;15.18;;;;;;;29.73;51.03;100151.56;5096295;28;20470;-82
2022/08/13 08:25:18;;;;;;;33.63;15.68;;;;;;;29.59;51.45;100144.78;5107201;28;20031;-82
2022/08/13 08:27:44;;;;;;;18.25;14.70;;;;;;;29.63;51.79;100151.50;5107201;28;20058;-82
2022/08/13 08:30:15;;;;;;;28.80;13.57;;;;;;;29.55;50.15;100143.63;5108731;28;20024;-83
2022/08/13 08:32:45;;;;;;;32.60;18.35;;;;;;;29.55;50.80;100143.63;5097586;28;20039;-82
2022/08/13 08:35:12;;;;;;;23.25;13.52;;;;;;;29.60;51.40;100140.94;5094314;28;20394;-82
2022/08/13 08:43:13;;;;;;;29.20;15.27;;;;;;;29.43;53.57;100129.06;5093094;28;20093;-83
2022/08/13 08:45:40;;;;;;;21.88;14.48;;;;;;;29.09;54.85;100126.44;5094082;28;20054;-81
2022/08/13 08:48:07;;;;;;;21.13;15.40;;;;;;;29.25;54.76;100129.41;5093479;28;20104;-81
2022/08/13 08:50:33;;;;;;;22.45;14.57;;;;;;;29.27;54.06;100124.44;5093877;28;20110;-82
2022/08/13 08:53:19;;;;;;;26.33;14.38;;;;;;;29.26;54.22;100111.72;5092326;28;20096;-82
2022/08/13 08:55:50;;;;;;;25.02;14.82;;;;;;;29.17;54.27;100095.50;5093623;28;20041;-82
2022/08/13 08:58:19;;;;;;;18.77;15.30;;;;;;;29.33;54.41;100107.63;5092333;28;20028;-82
2022/08/13 09:00:47;;;;;;;32.13;17.17;;;;;;;29.21;54.57;100114.38;5092018;28;20038;-81
2022/08/13 09:03:17;;;;;;;36.60;16.55;;;;;;;29.21;54.47;100108.84;5092048;28;20545;-81
2022/08/13 09:05:45;;;;;;;29.05;14.40;;;;;;;29.14;55.00;100107.09;5092875;28;20505;-81
2022/08/13 09:08:13;;;;;;;26.88;14.65;;;;;;;29.16;54.35;100101.31;5091957;28;20031;-82
2022/08/13 09:10:39;;;;;;;35.72;15.30;;;;;;;29.01;55.15;100090.91;5074992;28;20143;-82
2022/08/13 09:13:05;;;;;;;32.88;15.20;;;;;;;29.02;55.07;100088.97;5093445;28;20024;-82
2022/08/13 09:15:39;;;;;;;26.27;14.25;;;;;;;29.06;55.57;100084.56;5091905;28;20048;-82
2022/08/13 09:18:05;;;;;;;28.40;14.18;;;;;;;29.07;55.79;100087.09;5092068;28;20070;-82
2022/08/13 09:20:33;;;;;;;34.58;15.88;;;;;;;29.23;55.92;100084.50;5091664;28;20081;-83
2022/08/13 09:23:08;;;;;;;27.75;14.38;;;;;;;29.43;55.58;100081.97;5093222;28;20103;-82
2022/08/13 09:25:35;;;;;;;22.52;14.45;;;;;;;29.47;55.28;100081.19;5092586;28;20028;-82
2022/08/13 09:28:01;;;;;;;60.65;15.65;;;;;;;29.41;55.28;100081.41;5093061;28;20441;-82
2022/08/13 09:30:27;;;;;;;26.25;15.68;;;;;;;29.26;55.93;100078.47;5093278;28;20161;-82
2022/08/13 09:32:58;;;;;;;21.58;15.60;;;;;;;29.23;56.43;100084.50;5092529;28;20103;-82
2022/08/13 09:35:28;;;;;;;23.00;15.13;;;;;;;28.93;56.60;100074.72;5092114;28;20039;-82
2022/08/13 09:37:56;;;;;;;49.10;17.00;;;;;;;29.07;56.81;100078.78;5091612;28;20024;-81
2022/08/13 09:40:30;;;;;;;26.67;15.18;;;;;;;29.10;56.50;100078.28;5092858;28;20054;-81
2022/08/13 09:43:02;;;;;;;22.13;15.07;;;;;;;29.39;55.54;100078.03;5092936;28;20067;-84
2022/08/13 09:45:29;;;;;;;25.55;14.48;;;;;;;29.52;55.30;100064.59;5093140;28;20035;-83
2022/08/13 09:47:57;;;;;;;23.33;13.75;;;;;;;29.62;54.51;100063.88;5092021;28;20028;-82
2022/08/13 09:50:25;;;;;;;24.40;16.38;;;;;;;29.69;53.99;100065.31;5125334;27;20361;-82
2022/08/13 09:52:53;;;;;;;26.23;15.35;;;;;;;29.77;54.28;100058.47;5093710;28;20032;-83
2022/08/13 09:55:24;;;;;;;21.30;13.30;;;;;;;29.94;53.78;100061.97;5094191;28;20094;-82
2022/08/13 09:57:53;;;;;;;24.40;15.70;;;;;;;30.02;53.80;100064.25;5099117;28;20032;-81
2022/08/13 10:00:22;;;;;;;30.95;14.18;;;;;;;30.10;53.65;100055.44;5105409;28;20038;-80
2022/08/13 10:02:59;;;;;;;29.55;13.30;;;;;;;30.09;53.30;100056.53;5088717;28;20096;-82
2022/08/13 10:05:32;;;;;;;23.75;14.98;;;;;;;30.26;53.13;100050.00;5101163;28;20028;-81
2022/08/13 10:08:02;;;;;;;23.85;13.65;;;;;;;30.39;53.17;100049.56;5092627;28;20028;-82
2022/08/13 10:10:28;;;;;;;29.10;13.43;;;;;;;30.58;52.44;100050.78;5092706;28;20070;-82
2022/08/13 10:12:56;;;;;;;32.17;12.60;;;;;;;30.70;51.31;100048.63;5091748;28;20028;-84
2022/08/13 10:15:22;;;;;;;26.85;14.50;;;;;;;30.74;51.32;100046.94;5093005;28;20044;-82
2022/08/13 10:17:57;;;;;;;31.65;14.77;;;;;;;30.95;51.63;100042.34;5092325;28;20036;-82
2022/08/13 10:20:37;;;;;;;22.23;13.88;;;;;;;30.80;51.06;100045.88;5092635;28;20031;-81
2022/08/13 10:23:14;;;;;;;30.33;13.30;;;;;;;30.53;50.96;100046.03;5091170;28;20097;-80
2022/08/13 10:25:42;;;;;;;24.77;13.70;;;;;;;30.32;51.69;100051.69;5092079;28;20154;-81
2022/08/13 10:28:24;;;;;;;28.35;15.07;;;;;;;30.34;52.17;100046.69;5091271;28;20031;-81
2022/08/13 10:30:50;;;;;;;44.53;21.63;;;;;;;30.41;51.48;100036.25;5073496;28;20405;-83
2022/08/13 10:33:17;;;;;;;26.02;14.05;;;;;;;30.44;51.15;100046.78;5091979;28;20410;-81
2022/08/13 10:35:55;;;;;;;28.42;14.18;;;;;;;30.40;51.64;100040.09;5090997;28;20150;-81
2022/08/13 10:38:26;;;;;;;18.77;13.45;;;;;;;30.44;51.27;100035.69;5091809;28;20036;-82
2022/08/13 10:40:53;;;;;;;27.08;13.18;;;;;;;30.34;51.88;100036.44;5092179;28;20035;-82
2022/08/13 10:43:24;;;;;;;24.48;13.48;;;;;;;30.48;51.34;100039.63;5093665;28;20028;-81
2022/08/13 10:45:59;;;;;;;28.38;14.30;;;;;;;30.07;53.24;100025.44;5092260;28;20097;-82
2022/08/13 10:48:25;;;;;;;27.38;14.57;;;;;;;30.05;53.57;100044.31;5091406;28;20056;-82
2022/08/13 10:50:53;;;;;;;22.20;14.50;;;;;;;30.04;53.39;100037.09;5091670;28;20039;-82
2022/08/13 10:56:05;;;;;;;30.85;13.65;;;;;;;30.27;53.00;100040.56;5092504;28;20120;-80
2022/08/13 10:58:31;;;;;;;32.80;16.08;;;;;;;30.38;52.38;100042.28;5091913;28;20500;-82
2022/08/13 11:01:02;;;;;;;32.97;14.57;;;;;;;30.52;51.92;100032.44;5092872;28;20028;-81
2022/08/13 11:03:33;;;;;;;31.05;15.48;;;;;;;30.67;51.60;100026.94;5092721;28;20032;-81
2022/08/13 11:06:02;;;;;;;27.40;12.98;;;;;;;30.80;51.91;100034.75;5095338;28;20056;-82
2022/08/13 11:08:36;;;;;;;24.65;14.32;;;;;;;30.94;52.17;100040.66;5096741;28;20040;-83
2022/08/13 11:11:06;;;;;;;19.30;13.63;;;;;;;31.01;52.51;100030.97;5095454;28;20035;-82
2022/08/13 11:13:33;;;;;;;29.17;14.15;;;;;;;30.75;52.95;100048.63;5096747;28;20445;-82
2022/08/13 11:16:00;;;;;;;19.75;14.82;;;;;;;30.52;53.82;100043.53;5095994;28;20048;-82
2022/08/13 11:18:27;;;;;;;20.65;13.70;;;;;;;30.47;53.64;100029.59;5095966;28;20036;-81
2022/08/13 11:21:03;;;;;;;26.50;13.27;;;;;;;30.48;54.25;100025.75;5096156;28;20359;-81
2022/08/13 11:23:30;;;;;;;24.73;13.85;;;;;;;30.39;54.02;100027.34;5095291;28;20813;-81
2022/08/13 11:25:56;;;;;;;19.92;14.30;;;;;;;30.36;54.69;100023.16;5095342;28;20021;-82
2022/08/13 11:28:22;;;;;;;17.10;13.65;;;;;;;30.44;54.30;100024.59;5094901;28;20024;-82
2022/08/13 11:30:48;;;;;;;32.42;15.85;;;;;;;30.65;54.55;100029.97;5084181;28;20028;-81
2022/08/13 11:33:14;;;;;;;32.30;15.70;;;;;;;30.75;54.08;100029.19;5112601;28;20406;-82
2022/08/13 11:35:42;;;;;;;28.27;14.25;;;;;;;30.77;54.68;100030.59;5112994;28;20112;-81
2022/08/13 11:38:09;;;;;;;18.25;14.55;;;;;;;30.70;55.04;100012.53;5114771;28;20054;-82